BEE61A EGPH-EGLL
Flight info
| Callsign | BEE61A |
|---|---|
| Flight time | N/A |
| Altitude | 31000 |
| Route | TLA DCT LAKEY DCT NUGRA |
| Aircraft | E195/M-SDE3GILORVW/S |
Departure
| Time | 2026-04-20 17:09 |
|---|---|
| Airport | Edinburgh Airport (EGPH) |
Arrival
| Time | N/A |
|---|---|
| Airport | London Heathrow Airport (EGLL) |
| Time | Latitude | Longitude | Altitude | Speed | Heading |
|---|---|---|---|---|---|
| 2026-04-20 16:49 | 55.94810 | -3.35750 | 114 ft | 0 kts | 208° |
| 2026-04-20 17:00 | 55.94821 | -3.35739 | 114 ft | 4 kts | 208° |
| 2026-04-20 17:00 | 55.94845 | -3.35715 | 111 ft | 4 kts | 212° |
| 2026-04-20 17:00 | 55.94866 | -3.35687 | 111 ft | 4 kts | 237° |
| 2026-04-20 17:01 | 55.94871 | -3.35659 | 111 ft | 0 kts | 298° |
| 2026-04-20 17:03 | 55.94884 | -3.35699 | 113 ft | 9 kts | 298° |
| 2026-04-20 17:03 | 55.94924 | -3.35823 | 114 ft | 12 kts | 306° |
| 2026-04-20 17:03 | 55.95001 | -3.35844 | 113 ft | 12 kts | 26° |
| 2026-04-20 17:04 | 55.95063 | -3.35894 | 111 ft | 13 kts | 301° |
| 2026-04-20 17:04 | 55.95105 | -3.36065 | 108 ft | 16 kts | 288° |
| 2026-04-20 17:04 | 55.95134 | -3.36260 | 108 ft | 16 kts | 265° |
| 2026-04-20 17:04 | 55.95085 | -3.36427 | 108 ft | 14 kts | 238° |
| 2026-04-20 17:05 | 55.95038 | -3.36564 | 108 ft | 12 kts | 238° |
| 2026-04-20 17:05 | 55.94998 | -3.36680 | 108 ft | 11 kts | 238° |
| 2026-04-20 17:05 | 55.94953 | -3.36812 | 108 ft | 15 kts | 239° |
| 2026-04-20 17:05 | 55.94893 | -3.36991 | 108 ft | 18 kts | 239° |
| 2026-04-20 17:06 | 55.94834 | -3.37167 | 108 ft | 15 kts | 239° |
| 2026-04-20 17:06 | 55.94785 | -3.37312 | 107 ft | 13 kts | 239° |
| 2026-04-20 17:06 | 55.94736 | -3.37454 | 108 ft | 15 kts | 238° |
| 2026-04-20 17:06 | 55.94673 | -3.37641 | 108 ft | 20 kts | 239° |
| 2026-04-20 17:07 | 55.94593 | -3.37878 | 108 ft | 23 kts | 239° |
| 2026-04-20 17:07 | 55.94513 | -3.38112 | 107 ft | 21 kts | 239° |
| 2026-04-20 17:07 | 55.94433 | -3.38348 | 108 ft | 24 kts | 239° |
| 2026-04-20 17:07 | 55.94348 | -3.38597 | 108 ft | 22 kts | 239° |
| 2026-04-20 17:08 | 55.94282 | -3.38806 | 108 ft | 15 kts | 256° |
| 2026-04-20 17:08 | 55.94335 | -3.38920 | 108 ft | 12 kts | 328° |
| 2026-04-20 17:08 | 55.94414 | -3.38964 | 109 ft | 12 kts | 27° |
| 2026-04-20 17:08 | 55.94531 | -3.38627 | 108 ft | 61 kts | 60° |
| 2026-04-20 17:09 | 55.94848 | -3.37673 | 108 ft | 119 kts | 59° |
| 2026-04-20 17:09 | 55.95357 | -3.36171 | 283 ft | 157 kts | 60° |
| 2026-04-20 17:09 | 55.95959 | -3.34413 | 945 ft | 176 kts | 59° |
| 2026-04-20 17:09 | 55.96812 | -3.32717 | 1591 ft | 189 kts | 44° |
| 2026-04-20 17:10 | 55.97853 | -3.31143 | 2122 ft | 205 kts | 43° |
| 2026-04-20 17:10 | 55.98997 | -3.29442 | 2662 ft | 219 kts | 42° |
| 2026-04-20 17:10 | 56.00144 | -3.27627 | 3369 ft | 226 kts | 49° |
| 2026-04-20 17:10 | 56.01135 | -3.25307 | 3784 ft | 243 kts | 52° |
| 2026-04-20 17:11 | 56.02533 | -3.23512 | 4341 ft | 256 kts | 21° |
| 2026-04-20 17:11 | 56.04320 | -3.23275 | 5047 ft | 265 kts | 349° |
| 2026-04-20 17:11 | 56.05961 | -3.24753 | 5803 ft | 268 kts | 320° |
| 2026-04-20 17:11 | 56.07338 | -3.27067 | 6207 ft | 278 kts | 312° |
| 2026-04-20 17:12 | 56.08169 | -3.30153 | 6423 ft | 277 kts | 276° |
| 2026-04-20 17:12 | 56.07856 | -3.33458 | 7206 ft | 271 kts | 242° |
| 2026-04-20 17:12 | 56.06611 | -3.35948 | 7745 ft | 272 kts | 211° |
| 2026-04-20 17:12 | 56.04939 | -3.37541 | 8309 ft | 273 kts | 202° |
| 2026-04-20 17:13 | 56.03196 | -3.38958 | 8879 ft | 277 kts | 202° |
| 2026-04-20 17:13 | 56.01425 | -3.40363 | 9462 ft | 280 kts | 201° |
| 2026-04-20 17:13 | 55.99613 | -3.41619 | 10128 ft | 280 kts | 198° |
| 2026-04-20 17:13 | 55.97928 | -3.43440 | 10620 ft | 290 kts | 225° |
| 2026-04-20 17:14 | 55.96933 | -3.46600 | 11080 ft | 301 kts | 249° |
| 2026-04-20 17:14 | 55.96015 | -3.50018 | 11279 ft | 313 kts | 229° |
| 2026-04-20 17:14 | 55.94300 | -3.52347 | 11653 ft | 313 kts | 200° |
| 2026-04-20 17:14 | 55.92176 | -3.52905 | 12261 ft | 309 kts | 176° |
| 2026-04-20 17:15 | 55.90012 | -3.52787 | 12867 ft | 313 kts | 179° |
| 2026-04-20 17:15 | 55.87826 | -3.53139 | 13505 ft | 317 kts | 187° |
| 2026-04-20 17:15 | 55.85655 | -3.53941 | 14199 ft | 321 kts | 191° |
| 2026-04-20 17:15 | 55.83485 | -3.54864 | 14850 ft | 322 kts | 191° |
| 2026-04-20 17:16 | 55.81294 | -3.55823 | 15445 ft | 326 kts | 192° |
| 2026-04-20 17:16 | 55.79080 | -3.56834 | 16008 ft | 331 kts | 192° |
| 2026-04-20 17:16 | 55.76846 | -3.57866 | 16653 ft | 333 kts | 192° |
| 2026-04-20 17:16 | 55.74600 | -3.58905 | 17304 ft | 334 kts | 192° |
| 2026-04-20 17:17 | 55.72344 | -3.59934 | 17961 ft | 335 kts | 192° |
| 2026-04-20 17:17 | 55.70069 | -3.60963 | 18556 ft | 338 kts | 192° |
| 2026-04-20 17:17 | 55.67775 | -3.61992 | 19035 ft | 342 kts | 192° |
| 2026-04-20 17:17 | 55.65466 | -3.63020 | 19580 ft | 343 kts | 193° |
| 2026-04-20 17:18 | 55.63143 | -3.64048 | 20115 ft | 344 kts | 192° |
| 2026-04-20 17:18 | 55.60814 | -3.65074 | 20563 ft | 347 kts | 192° |
| 2026-04-20 17:18 | 55.58466 | -3.66101 | 21039 ft | 349 kts | 192° |
| 2026-04-20 17:18 | 55.56097 | -3.67129 | 21527 ft | 351 kts | 192° |
| 2026-04-20 17:19 | 55.53715 | -3.68163 | 21981 ft | 355 kts | 192° |
| 2026-04-20 17:19 | 55.51321 | -3.69192 | 22536 ft | 356 kts | 192° |
| 2026-04-20 17:19 | 55.48899 | -3.70224 | 23029 ft | 358 kts | 192° |
| 2026-04-20 17:19 | 55.46455 | -3.71258 | 23464 ft | 362 kts | 193° |
| 2026-04-20 17:20 | 55.43979 | -3.72295 | 23815 ft | 370 kts | 194° |
| 2026-04-20 17:20 | 55.41476 | -3.73344 | 24275 ft | 371 kts | 194° |
| 2026-04-20 17:20 | 55.38953 | -3.74397 | 24652 ft | 375 kts | 193° |
| 2026-04-20 17:20 | 55.36387 | -3.75459 | 25025 ft | 380 kts | 193° |
| 2026-04-20 17:21 | 55.33807 | -3.76518 | 25474 ft | 383 kts | 193° |
| 2026-04-20 17:21 | 55.31207 | -3.77586 | 25892 ft | 386 kts | 194° |